• Join FlightAware (Why Join?)
  • Login
  • US Flag 
05:07AM EDT


 

Airport Tracker/Info


-or-


 

Live Flight TrackerFlight Track Log ✈ ASH3770 ✈ 09-Apr-2013 ✈ KIAD - KAUS

Flight Track Log - Related Links

Times and Time Zones

All times are in EDT time to prevent confusion due to time zone crossing. See the ASH3770 flight status page for this flight to view local times or setup timezone preferences in your user account.

Time Position Orientation Groundspeed Altitude Reporting Facility
EDT Latitude Longitude Course Direction KTS MPH feet Rate Location/Type
12:47PM 38.9333 -77.5833 263° West 236 272 3,100  Level Potomac TRACON
12:48PM 38.9244 -77.6808 263° West 254 292 6,500 2,040 Climbing Washington Center
12:49PM 38.8897 -77.7625 241° Southwest 281 323 7,600 1,680 Climbing Washington Center
12:50PM 38.8383 -77.8356 228° Southwest 276 318 9,900 2,400 Climbing Washington Center
12:51PM 38.8158 -77.9175 251° West 250 288 12,500 2,400 Climbing Washington Center
12:52PM 38.8286 -78.0114 280° West 250 288 14,800 1,740 Climbing Washington Center
12:53PM 38.8450 -78.1211 281° West 299 344 16,000 1,380 Climbing Washington Center
12:54PM 38.8531 -78.2386 275° West 330 380 17,600 1,800 Climbing Washington Center
12:55PM 38.8522 -78.3639 270° West 347 399 19,600 1,620 Climbing Washington Center
12:56PM 38.8514 -78.4919 270° West 352 405 20,900 1,440 Climbing Washington Center
12:57PM 38.8544 -78.6172 272° West 379 436 22,500 1,500 Climbing Washington Center
12:58PM 38.8511 -78.7478 268° West 384 442 24,000 1,500 Climbing Washington Center
12:59PM 38.8453 -78.8942 267° West 377 434 25,600 1,320 Climbing Washington Center
01:00PM 38.8433 -79.0300 269° West 377 434 26,700 1,020 Climbing Washington Center
01:01PM 38.8453 -79.1794 271° West 394 453 27,700 1,200 Climbing Washington Center
01:02PM 38.8244 -79.3194 259° West 406 467 29,200 1,320 Climbing Washington Center
01:03PM 38.8017 -79.4436 257° West 406 467 30,400 1,200 Climbing Washington Center
01:04PM 38.7683 -79.5750 252° West 400 460 31,700 1,140 Climbing Washington Center
01:05PM 38.7142 -79.6972 240° Southwest 400 460 32,700 900 Climbing Washington Center
01:06PM 38.6658 -79.8219 244° Southwest 395 455 33,500 900 Climbing Washington Center
01:07PM 38.6317 -79.9664 253° West 395 455 34,600 1,020 Climbing Washington Center
01:08PM 38.6017 -80.1000 254° West 390 449 35,600 360 Climbing Washington Center
01:11PM 38.5211 -80.4331 253° West 409 471 36,000 60 Climbing Indianapolis Center
01:12PM 38.4894 -80.5686 253° West 423 487 36,000  Level Indianapolis Center
01:13PM 38.4553 -80.7161 254° West 429 494 36,000  Level Indianapolis Center
01:14PM 38.4194 -80.8619 253° West 429 494 36,000 300 Level Indianapolis Center
01:15PM 38.3850 -81.0067 253° West 425 489 36,700 720 Climbing Indianapolis Center
01:16PM 38.3436 -81.1778 253° West 419 482 37,600 600 Climbing Indianapolis Center
01:17PM 38.3089 -81.3178 252° West 414 476 38,000 180 Climbing Indianapolis Center
01:18PM 38.2750 -81.4603 253° West 417 480 38,000  Level Indianapolis Center
01:19PM 38.2389 -81.6042 252° West 423 487 38,000  Level Indianapolis Center
01:20PM 38.2039 -81.7489 253° West 425 489 38,000  Level Indianapolis Center
01:21PM 38.1669 -81.8936 252° West 428 493 38,000  Level Indianapolis Center
01:22PM 38.1314 -82.0397 253° West 432 497 38,000  Level Indianapolis Center
01:23PM 38.0911 -82.2028 253° West 428 493 38,000  Level Indianapolis Center
01:24PM 38.0550 -82.3469 252° West 428 493 38,000  Level Indianapolis Center
01:25PM 38.0181 -82.4894 252° West 426 490 38,000  Level Indianapolis Center
01:26PM 37.9817 -82.6322 252° West 426 490 38,000  Level Indianapolis Center
01:27PM 37.9394 -82.7983 252° West 424 488 38,000  Level Indianapolis Center
01:28PM 37.9028 -82.9408 252° West 425 489 38,000  Level Indianapolis Center
01:29PM 37.8661 -83.0811 252° West 422 486 38,000  Level Indianapolis Center
01:30PM 37.8286 -83.2214 251° West 421 484 38,000  Level Indianapolis Center
01:31PM 37.7919 -83.3639 252° West 425 489 38,000  Level Indianapolis Center
01:32PM 37.7475 -83.5278 251° West 425 489 38,000  Level Indianapolis Center
01:33PM 37.7097 -83.6703 252° West 427 491 38,000  Level Indianapolis Center
01:34PM 37.6711 -83.8125 251° West 428 493 38,000  Level Indianapolis Center
01:36PM 37.6347 -83.9536 252° West 426 490 38,000  Level Indianapolis Center
01:37PM 37.5950 -84.0972 251° West 430 495 38,000  Level Indianapolis Center
01:38PM 37.5569 -84.2403 251° West 430 495 38,000  Level Indianapolis Center
01:39PM 37.5103 -84.4064 251° West 431 496 38,000  Level Indianapolis Center
01:40PM 37.4717 -84.5475 251° West 428 493 38,000  Level Indianapolis Center
01:41PM 37.4331 -84.6914 251° West 432 497 38,000  Level Indianapolis Center
01:42PM 37.3928 -84.8322 250° West 429 494 38,000  Level Indianapolis Center
01:43PM 37.3528 -84.9753 251° West 432 497 38,000  Level Indianapolis Center
01:44PM 37.3067 -85.1389 251° West 428 493 38,000  Level Indianapolis Center
01:45PM 37.2661 -85.2789 250° West 426 490 38,000  Level Indianapolis Center
01:46PM 37.2269 -85.4189 251° West 425 489 38,000  Level Indianapolis Center
01:47PM 37.1889 -85.5497 250° West 424 488 38,000  Level Indianapolis Center
01:48PM 37.1578 -85.6669 252° West 430 495 38,000  Level Memphis Center
01:49PM 37.1133 -85.8178 250° West 435 501 38,000  Level Memphis Center
01:50PM 37.0706 -85.9581 249° West 435 501 38,000  Level Memphis Center
01:51PM 37.0317 -86.0978 251° West 435 501 38,000  Level Memphis Center
01:52PM 36.9903 -86.2325 249° West 435 501 38,000  Level Memphis Center
01:53PM 36.9511 -86.3722 251° West 430 495 38,000  Level Memphis Center
01:54PM 36.8992 -86.5044 244° Southwest 430 495 38,000  Level Memphis Center
01:55PM 36.8342 -86.6267 236° Southwest 430 495 38,000  Level Memphis Center
01:56PM 36.7689 -86.7517 237° Southwest 436 502 38,000  Level Memphis Center
01:57PM 36.7017 -86.8711 235° Southwest 430 495 38,000  Level Memphis Center
01:58PM 36.6361 -86.9953 237° Southwest 430 495 38,000  Level Memphis Center
01:59PM 36.5686 -87.1197 236° Southwest 430 495 38,000  Level Memphis Center
02:00PM 36.5031 -87.2436 237° Southwest 430 495 38,000  Level Memphis Center
02:01PM 36.4350 -87.3647 235° Southwest 430 495 38,000  Level Memphis Center
02:02PM 36.3672 -87.4858 235° Southwest 430 495 38,000  Level Memphis Center
02:03PM 36.2989 -87.6042 234° Southwest 430 495 38,000  Level Memphis Center
02:04PM 36.2347 -87.7222 236° Southwest 430 495 38,000  Level Memphis Center
02:05PM 36.1744 -87.8294 235° Southwest 423 487 38,000  Level Memphis Center
02:06PM 36.1081 -87.9522 236° Southwest 428 493 38,000  Level Memphis Center
02:07PM 36.0417 -88.0697 235° Southwest 428 493 38,000  Level Memphis Center
02:08PM 35.9811 -88.1817 236° Southwest 423 487 38,000  Level Memphis Center
02:09PM 35.9122 -88.2989 234° Southwest 423 487 38,000  Level Memphis Center
02:10PM 35.8472 -88.4158 236° Southwest 423 487 38,000  Level Memphis Center
02:11PM 35.7803 -88.5325 235° Southwest 423 487 38,000  Level Memphis Center
02:12PM 35.7153 -88.6517 236° Southwest 428 493 38,000  Level Memphis Center
02:13PM 35.6500 -88.7653 235° Southwest 428 493 38,000  Level Memphis Center
02:14PM 35.5786 -88.8944 236° Southwest 428 493 38,000  Level Memphis Center
02:15PM 35.5131 -89.0078 235° Southwest 423 487 38,000  Level Memphis Center
02:16PM 35.4475 -89.1208 235° Southwest 423 487 38,000  Level Memphis Center
02:17PM 35.3819 -89.2367 235° Southwest 423 487 38,000  Level Memphis Center
02:18PM 35.3161 -89.3519 235° Southwest 418 481 38,000  Level Memphis Center
02:19PM 35.2481 -89.4672 234° Southwest 418 481 38,000  Level Memphis Center
02:20PM 35.1842 -89.5797 235° Southwest 418 481 38,000  Level Memphis Center
02:21PM 35.1203 -89.6944 236° Southwest 418 481 38,000  Level Memphis Center
02:22PM 35.0542 -89.8117 235° Southwest 424 488 38,000  Level Memphis Center
02:23PM 34.9858 -89.9311 235° Southwest 424 488 38,000  Level Memphis Center
02:24PM 34.9153 -90.0456 233° Southwest 424 488 38,000  Level Memphis Center
02:25PM 34.8467 -90.1572 233° Southwest 429 494 38,000  Level Memphis Center
02:26PM 34.7778 -90.2736 234° Southwest 429 494 38,000  Level Memphis Center
02:27PM 34.7194 -90.3722 234° Southwest 429 494 38,000  Level Memphis Center
02:28PM 34.6506 -90.4858 234° Southwest 429 494 38,000  Level Memphis Center
02:29PM 34.5836 -90.6019 235° Southwest 429 494 38,000  Level Memphis Center
02:30PM 34.5125 -90.7150 233° Southwest 429 494 38,000  Level Memphis Center
02:31PM 34.4453 -90.8256 234° Southwest 429 494 38,000  Level Memphis Center
02:32PM 34.3781 -90.9383 234° Southwest 429 494 38,000  Level Memphis Center
02:33PM 34.3128 -91.0486 234° Southwest 424 488 38,000  Level Memphis Center
02:34PM 34.2369 -91.1711 233° Southwest 424 488 38,000  Level Memphis Center
02:35PM 34.1672 -91.2836 233° Southwest 419 482 38,000  Level Memphis Center
02:36PM 34.1017 -91.3906 234° Southwest 414 476 38,000  Level Memphis Center
02:37PM 34.0339 -91.5025 234° Southwest 414 476 38,000  Level Memphis Center
02:38PM 33.9661 -91.6119 233° Southwest 414 476 38,000  Level Memphis Center
02:40PM 33.8358 -91.8225 233° Southwest 395 455 38,000  Level Fort Worth Center
02:41PM 33.7719 -91.9317 235° Southwest 395 455 38,000  Level Fort Worth Center
02:42PM 33.7036 -92.0383 232° Southwest 401 461 38,000  Level Fort Worth Center
02:43PM 33.6372 -92.1469 234° Southwest 407 468 38,000  Level Fort Worth Center
02:44PM 33.5667 -92.2558 232° Southwest 407 468 38,000  Level Fort Worth Center
02:45PM 33.5000 -92.3644 234° Southwest 407 468 38,000  Level Fort Worth Center
02:46PM 33.4353 -92.4703 234° Southwest 407 468 38,000  Level Fort Worth Center
02:47PM 33.3625 -92.5786 231° Southwest 407 468 38,000  Level Fort Worth Center
02:48PM 33.2956 -92.6842 233° Southwest 407 468 38,000  Level Fort Worth Center
02:49PM 33.2414 -92.8039 242° Southwest 407 468 38,000  Level Fort Worth Center
02:50PM 33.1958 -92.9278 246° West 407 468 38,000  Level Fort Worth Center
02:51PM 33.1603 -93.0414 250° West 407 468 38,000  Level Fort Worth Center
02:52PM 33.1167 -93.1675 248° West 407 468 38,000  Level Fort Worth Center
02:53PM 33.0728 -93.2911 247° West 407 468 38,000  Level Fort Worth Center
02:54PM 33.0331 -93.4167 249° West 412 474 38,000  Level Fort Worth Center
02:55PM 32.9869 -93.5475 247° West 418 481 38,000  Level Fort Worth Center
02:56PM 32.9450 -93.6756 249° West 423 487 38,000  Level Fort Worth Center
02:57PM 32.8986 -93.8036 247° West 423 487 38,000  Level Fort Worth Center
02:58PM 32.8564 -93.9339 249° West 423 487 38,000  Level Fort Worth Center
02:59PM 32.8117 -94.0617 247° West 423 487 38,000  Level Fort Worth Center
03:00PM 32.7692 -94.1894 248° West 423 487 38,000  Level Fort Worth Center
03:01PM 32.7244 -94.3169 247° West 423 487 38,000  Level Fort Worth Center
03:02PM 32.6794 -94.4467 248° West 423 487 38,000  Level Fort Worth Center
03:03PM 32.6344 -94.5764 248° West 423 487 38,000  Level Fort Worth Center
03:04PM 32.5892 -94.7011 247° West 423 487 38,000  Level Fort Worth Center
03:05PM 32.5439 -94.8306 247° West 423 487 38,000  Level Fort Worth Center
03:06PM 32.4983 -94.9600 247° West 423 487 38,000  Level Fort Worth Center
03:07PM 32.4572 -95.0917 250° West 423 487 38,000  Level Fort Worth Center
03:08PM 32.4114 -95.2183 247° West 418 481 38,000  Level Fort Worth Center
03:09PM 32.3656 -95.3475 247° West 418 481 38,000  Level Fort Worth Center
03:10PM 32.3156 -95.4861 247° West 418 481 38,000  Level Fort Worth Center
03:11PM 32.2714 -95.6125 248° West 418 481 38,000  Level Fort Worth Center
03:12PM 32.2253 -95.7386 247° West 425 489 38,000  Level Fort Worth Center
03:13PM 32.1789 -95.8669 247° West 425 489 38,000  Level Fort Worth Center
03:14PM 32.1322 -95.9928 246° West 420 483 38,000  Level Fort Worth Center
03:15PM 32.0878 -96.1161 247° West 420 483 38,000  Level Fort Worth Center
03:16PM 32.0431 -96.2419 247° West 420 483 38,000  Level Fort Worth Center
03:17PM 31.9939 -96.3675 245° Southwest 420 483 38,000  Level Fort Worth Center
03:18PM 31.9531 -96.4781 247° West 420 483 38,000 -240 Level Fort Worth Center
03:19PM 31.9144 -96.6181 252° West 420 483 37,600 -1,020 Descending Fort Worth Center
03:20PM 31.8942 -96.7503 260° West 413 475 36,000 -840 Descending Fort Worth Center
03:21PM 31.8761 -96.8825 261° West 408 470 36,000 -600 Level Fort Worth Center
03:22PM 31.8431 -96.9975 251° West 408 470 34,800 -1,620 Descending Fort Worth Center
03:23PM 31.7556 -97.0836 220° Southwest 402 463 32,800 -2,040 Descending Fort Worth Center
03:24PM 31.6367 -97.1156 193° South 402 463 30,800 -2,160 Descending Fort Worth Center
03:24PM 31.5986 -97.1225 189° South 437 503 30,100 -3,120 Descending Houston Center
03:25PM 31.4792 -97.1486 191° South 435 501 26,800 -3,360 Descending Houston Center
03:26PM 31.3642 -97.1747 191° South 421 484 23,200 -3,060 Descending Houston Center
03:27PM 31.2556 -97.1986 191° South 399 459 20,500 -2,340 Descending Houston Center
03:28PM 31.1556 -97.2297 195° South 373 429 18,400 -2,220 Descending Houston Center
03:29PM 31.0444 -97.2731 198° South 359 413 15,900 -2,220 Descending Houston Center
03:30PM 30.9561 -97.3078 199° South 347 399 13,900 -1,440 Descending Houston Center
03:31PM 30.8678 -97.3406 198° South 340 391 13,000 -1,020 Descending Houston Center
03:32PM 30.7778 -97.3747 198° South 340 391 11,900 -1,260 Descending Houston Center
03:33PM 30.7147 -97.4617 230° Southwest 294 338 10,500 -1,620 Descending Houston Center
03:34PM 30.6756 -97.5294 236° Southwest 259 298 8,600 -1,920 Descending Houston Center
03:35PM 30.6114 -97.5611 203° Southwest 248 285 6,600 -1,560 Descending Houston Center
03:36PM 30.5486 -97.5894 201° Southwest 242 278 5,400 -1,080 Descending Houston Center
03:37PM 30.4892 -97.6164 201° Southwest 231 266 4,400 -780 Descending Houston Center
03:38PM 30.4286 -97.6508 206° Southwest 236 272 3,900 -780 Descending Houston Center
03:39PM 30.3692 -97.6828 205° Southwest 235 270 2,800 -780 Descending Houston Center
03:40PM 30.3033 -97.6814 179° South 206 237 2,400 -600 Descending Houston Center
03:41PM 30.2592 -97.6803 179° South 176 203 1,600 -780 Descending Houston Center